Aeroporto :
LOGIN :

Iscrizione | Disclaimer

   EN    FR    IT 

 










Sommario :    VFR   VFR Marginale   IFR   IFR Intensivo   IFR Molto Intensivo
Visibilità : 
Base nubi : 
>= 8 km
>= 3000ft
5 / 8 km
1000 / 3000 ft
1500m / 5 km
500 / 1000 ft
800 / 1500m
200 / 500 ft
< 800m
< 200 ft
Simboli :   Temporali  Nebbia  Neve Forte  Precipitazioni Forti  Vento > 20 kt
SIGMETs :   Varie  Temporali  Ghiacco  Turbolenza  Onda orograficha  Ceneri Vulcaniche






- Altitudine del aeroporto : 2945 ft
- Codice IATA : RGS


LEBG - Burgos

ULTIMO METAR :
  • 260600Z 04004KT 9999 FEW055 08/06 Q1019

METARs OBSOLETI :
  • 260530Z AUTO 06005KT CAVOK 07/05 Q1019
  • 260500Z AUTO 06004KT CAVOK 06/05 Q1019
  • 260430Z AUTO VRB01KT CAVOK 07/05 Q1018
  • 260400Z AUTO 02001KT CAVOK 06/05 Q1018
  • 260330Z AUTO VRB01KT CAVOK 07/05 Q1018
  • 260300Z AUTO VRB02KT CAVOK 06/04 Q1018
  • 260230Z AUTO VRB01KT CAVOK 07/05 Q1018
  • 260200Z AUTO VRB02KT CAVOK 07/05 Q1018
  • 260130Z AUTO 05003KT CAVOK 07/05 Q1018

TAF TAF LEBG
Valido dal 26 a 03 ore il 27 a 03 ore UTC


260200Z 2603/2703 06008KT CAVOK TX22/2614Z TN09/2604Z
PROB30
TEMPO 2603/2609 4000 BR SCT010



MetMap, La meteo Aeronautica in un colpo d'occhio ! - Copyright ORBIFLY Dicembre 2007 - Disclaimer

ORBIFLY MET'MAP TEAM :

Programmazione e sviluppo : Alexandra Zaïnal
Concezione : Baudouin d'Aumeries
Supporto tecnico e logistico : Manuel Goepfert
Aiuto : Marc-Olivier Méhu
Aiuto per la traduzione : Arnaldo La Scala




FONTI E CREDITI :

   NOAA